createdAt,value
2023-04-15T00:02:10.287Z,51
2023-04-15T00:08:03.191Z,50.9
2023-04-15T00:13:38.391Z,50.9
2023-04-15T00:19:31.278Z,50.8
2023-04-15T00:25:22.599Z,50.8
2023-04-15T00:31:13.697Z,50.7
2023-04-15T00:37:05.813Z,50.6
2023-04-15T00:42:56.804Z,50.6
2023-04-15T00:48:33.820Z,50.6
2023-04-15T00:54:26.052Z,50.5
2023-04-15T01:00:17.425Z,50.4
2023-04-15T01:05:54.981Z,50.4
2023-04-15T01:11:46.609Z,50.3
2023-04-15T01:17:38.201Z,50.3
2023-04-15T01:23:30.219Z,50.2
2023-04-15T01:29:22.036Z,50.2
2023-04-15T01:35:14.076Z,50.1
2023-04-15T01:41:05.134Z,50.1
2023-04-15T01:46:57.672Z,50
2023-04-15T01:52:48.508Z,49.9
2023-04-15T01:58:24.506Z,49.9
2023-04-15T02:04:02.255Z,49.9
2023-04-15T02:09:53.803Z,49.8
2023-04-15T02:15:44.666Z,49.8
2023-04-15T02:21:37.113Z,49.7
2023-04-15T02:27:00.142Z,49.6
2023-04-15T02:32:51.771Z,49.6
2023-04-15T02:38:43.520Z,49.5
2023-04-15T02:44:34.936Z,49.5
2023-04-15T02:50:26.785Z,49.4
2023-04-15T02:56:18.702Z,49.4
2023-04-15T03:02:10.389Z,49.3
2023-04-15T03:08:02.869Z,49.3
2023-04-15T03:13:54.592Z,49.3
2023-04-15T03:19:45.845Z,49.2
2023-04-15T03:25:37.226Z,49.1
2023-04-15T03:31:29.063Z,49.1
2023-04-15T03:37:05.468Z,49
2023-04-15T03:42:41.850Z,48.9
2023-04-15T03:48:49.551Z,48.9
2023-04-15T03:54:40.598Z,48.9
2023-04-15T04:00:31.483Z,48.8
2023-04-15T04:06:25.232Z,48.8
2023-04-15T04:12:16.849Z,48.7
2023-04-15T04:18:08.149Z,48.6
2023-04-15T04:23:44.478Z,48.6
2023-04-15T04:29:20.578Z,48.6
2023-04-15T04:35:12.445Z,48.5
2023-04-15T04:41:04.427Z,48.4
2023-04-15T04:46:56.394Z,48.4
2023-04-15T04:52:47.371Z,48.3
2023-04-15T04:58:39.272Z,48.3
2023-04-15T05:04:32.236Z,48.3
2023-04-15T05:10:08.195Z,48.2
2023-04-15T05:16:02.204Z,48.1
2023-04-15T05:21:55.993Z,48.1
2023-04-15T05:27:48.249Z,48.1
2023-04-15T05:33:40.116Z,48
2023-04-15T05:39:31.951Z,47.9
2023-04-15T05:45:23.675Z,47.9
2023-04-15T05:51:16.581Z,47.8
2023-04-15T05:57:10.036Z,47.8
2023-04-15T06:03:02.268Z,47.7
2023-04-15T06:08:23.945Z,47.7
2023-04-15T06:14:00.212Z,47.6
2023-04-15T06:19:37.190Z,47.6
2023-04-15T06:25:29.616Z,47.5
2023-04-15T06:30:50.516Z,47.4
2023-04-15T06:36:43.147Z,47.3
2023-04-15T06:42:20.748Z,47.3
2023-04-15T06:47:57.360Z,47.2
2023-04-15T06:53:48.721Z,46.9
2023-04-15T06:59:39.986Z,46.8
2023-04-15T07:05:16.452Z,46.6
2023-04-15T07:11:06.798Z,46.4
2023-04-15T07:17:01.178Z,46.3
2023-04-15T07:22:52.627Z,46.2
2023-04-15T07:28:44.352Z,45.9
2023-04-15T07:34:36.803Z,45.5
2023-04-15T07:40:27.428Z,45.3
2023-04-15T07:46:20.856Z,45.1
2023-04-15T07:52:15.375Z,45.1
2023-04-15T07:58:06.557Z,45
2023-04-15T08:04:00.624Z,44.9
2023-04-15T08:09:38.074Z,44.9
2023-04-15T08:15:14.382Z,44.9
2023-04-15T08:21:04.928Z,44.8
2023-04-15T08:27:03.801Z,44.8
2023-04-15T08:32:56.043Z,44.1
2023-04-15T08:38:32.792Z,43.3
2023-04-15T08:44:08.887Z,43.7
2023-04-15T08:49:45.704Z,44.4
2023-04-15T08:55:37.999Z,45.3
2023-04-15T09:01:29.681Z,46.1
2023-04-15T09:07:21.709Z,46.9
2023-04-15T09:13:15.710Z,47.8
2023-04-15T09:19:07.693Z,48.6
2023-04-15T09:24:58.356Z,49.3
2023-04-15T09:30:52.393Z,50.1
2023-04-15T09:36:44.495Z,50.7
2023-04-15T09:42:50.357Z,51.3
2023-04-15T09:48:14.153Z,51.6
2023-04-15T09:54:19.470Z,52.1
2023-04-15T09:59:56.126Z,52.5
2023-04-15T10:05:49.252Z,52.7
2023-04-15T10:11:25.227Z,52.8
2023-04-15T10:17:01.310Z,52.9
2023-04-15T10:22:21.709Z,52.9
2023-04-15T10:27:44.426Z,52.9
2023-04-15T10:33:36.112Z,52.8
2023-04-15T10:39:27.038Z,52.8
2023-04-15T10:45:03.174Z,52.8
2023-04-15T10:50:39.511Z,52.8
2023-04-15T10:56:30.090Z,52.7
2023-04-15T11:02:06.067Z,52.7
2023-04-15T11:07:59.496Z,52.6
2023-04-15T11:13:51.088Z,52.6
2023-04-15T11:19:43.322Z,52.6
2023-04-15T11:25:48.912Z,52.6
2023-04-15T11:31:25.259Z,52.5
2023-04-15T11:37:17.109Z,52.5
2023-04-15T11:43:21.627Z,52.4
2023-04-15T11:59:45.160Z,52.3
2023-04-15T12:05:10.090Z,52.3
2023-04-15T12:11:01.222Z,52.3
2023-04-15T12:17:05.457Z,52.3
2023-04-15T12:23:10.528Z,52.2
2023-04-15T12:29:01.710Z,52.2
2023-04-15T12:34:40.358Z,52.1
2023-04-15T12:40:17.989Z,52.2
2023-04-15T12:45:53.736Z,52.3
2023-04-15T12:51:45.287Z,52.3
2023-04-15T13:02:59.665Z,52.6
2023-04-15T13:08:58.559Z,52.9
2023-04-15T13:14:49.301Z,53.1
2023-04-15T13:20:41.082Z,53.3
2023-04-15T13:26:32.220Z,53.4
2023-04-15T13:32:24.801Z,53.6
2023-04-15T13:38:16.590Z,53.7
2023-04-15T13:44:09.903Z,53.8
2023-04-15T13:50:01.174Z,53.8
2023-04-15T13:56:24.335Z,53.9
2023-04-15T14:02:01.219Z,53.9
2023-04-15T14:07:54.677Z,53.8
2023-04-15T14:13:48.270Z,53.8
2023-04-15T14:19:41.388Z,53.8
2023-04-15T14:25:49.085Z,53.8
2023-04-15T14:31:40.980Z,53.8
2023-04-15T14:37:32.425Z,53.8
2023-04-15T14:43:23.389Z,53.8
2023-04-15T14:49:15.448Z,53.7
2023-04-15T14:55:07.274Z,53.7
2023-04-15T15:00:58.713Z,53.6
2023-04-15T15:07:08.991Z,53.6
2023-04-15T15:13:22.498Z,53.6
2023-04-15T15:19:26.178Z,53.6
2023-04-15T15:25:17.565Z,53.5
2023-04-15T15:31:09.668Z,53.5
2023-04-15T15:37:01.846Z,53.4
2023-04-15T15:42:38.712Z,53.4
2023-04-15T15:48:31.797Z,53.4
2023-04-15T15:53:53.066Z,53.4
2023-04-15T15:59:44.797Z,53.3
2023-04-15T16:06:15.595Z,53.3
2023-04-15T16:12:10.278Z,53.3
2023-04-15T16:18:03.112Z,53.3
2023-04-15T16:24:11.874Z,53.2
2023-04-15T16:30:22.565Z,53.1
2023-04-15T16:36:14.118Z,53.1
2023-04-15T16:42:07.133Z,53.1
2023-04-15T16:47:57.858Z,53
2023-04-15T16:53:50.788Z,53
2023-04-15T17:00:13.963Z,53
2023-04-15T17:06:08.317Z,52.9
2023-04-15T17:11:59.675Z,52.9
2023-04-15T17:17:52.070Z,52.9
2023-04-15T17:23:12.216Z,52.8
2023-04-15T17:29:04.004Z,52.8
2023-04-15T17:35:56.524Z,52.8
2023-04-15T17:41:47.822Z,52.7
2023-04-15T17:47:39.782Z,52.7
2023-04-15T17:53:32.439Z,52.6
2023-04-15T17:59:24.774Z,52.6
2023-04-15T18:05:19.153Z,52.6
2023-04-15T18:11:11.135Z,52.5
2023-04-15T18:17:20.347Z,52.5
2023-04-15T18:23:12.595Z,52.5
2023-04-15T18:29:04.620Z,52.4
2023-04-15T18:46:13.505Z,52.3
2023-04-15T18:52:05.536Z,52.3
2023-04-15T18:58:08.727Z,52.3
2023-04-15T19:04:47.120Z,52.2
2023-04-15T19:10:38.869Z,52.2
2023-04-15T19:16:30.724Z,52.1
2023-04-15T19:22:23.450Z,52.1
2023-04-15T19:28:16.576Z,52.1
2023-04-15T19:34:09.495Z,52
2023-04-15T19:39:45.767Z,52
2023-04-15T19:56:34.635Z,51.9
2023-04-15T20:02:25.944Z,51.9
2023-04-15T20:08:18.944Z,51.8
2023-04-15T20:15:03.808Z,51.8
2023-04-15T20:20:55.423Z,51.8
2023-04-15T20:26:46.885Z,51.7
2023-04-15T20:32:38.326Z,51.6
2023-04-15T20:38:29.631Z,51.6
2023-04-15T20:44:21.742Z,51.6
2023-04-15T20:50:25.582Z,51.6
2023-04-15T20:56:19.739Z,51.5
2023-04-15T21:02:11.207Z,51.5
2023-04-15T21:08:04.473Z,51.4
2023-04-15T21:14:16.468Z,51.4
2023-04-15T21:20:07.685Z,51.4
2023-04-15T21:25:46.305Z,51.3
2023-04-15T21:31:37.385Z,51.3
2023-04-15T21:37:28.540Z,51.3
2023-04-15T21:43:05.400Z,51.3
2023-04-15T21:49:44.982Z,51.2
2023-04-15T21:55:36.356Z,51.1
2023-04-15T22:01:30.139Z,51.1
2023-04-15T22:07:23.418Z,51.1
2023-04-15T22:13:27.098Z,51.1
2023-04-15T22:19:19.022Z,51
2023-04-15T22:26:01.085Z,51
2023-04-15T22:31:52.518Z,50.9
2023-04-15T22:37:44.255Z,50.9
2023-04-15T22:43:36.478Z,50.9
2023-04-15T22:49:13.400Z,50.8
2023-04-15T22:55:20.670Z,50.8
2023-04-15T23:00:57.057Z,50.8
2023-04-15T23:07:24.181Z,50.7
2023-04-15T23:12:59.888Z,50.7
2023-04-15T23:18:51.593Z,50.6
2023-04-15T23:24:43.028Z,50.6
2023-04-15T23:30:34.313Z,50.6
2023-04-15T23:36:26.584Z,50.6
2023-04-15T23:42:18.662Z,50.5
2023-04-15T23:47:54.275Z,50.5
2023-04-15T23:53:48.595Z,50.4
2023-04-15T23:59:40.505Z,50.4
